createdAt,value
2023-01-19T00:00:31.533Z,39.35
2023-01-19T00:02:58.229Z,30.13
2023-01-19T00:05:24.767Z,37.25
2023-01-19T00:07:51.215Z,30.55
2023-01-19T00:10:17.941Z,33.20
2023-01-19T00:12:44.359Z,33.75
2023-01-19T00:15:11.822Z,32.83
2023-01-19T00:17:40.974Z,32.45
2023-01-19T00:20:09.392Z,30.88
2023-01-19T00:22:35.921Z,28.27
2023-01-19T00:25:02.825Z,34.22
2023-01-19T00:27:30.446Z,38.15
2023-01-19T00:29:57.184Z,40.85
2023-01-19T00:32:23.716Z,38.25
2023-01-19T00:34:52.292Z,33.38
2023-01-19T00:37:18.767Z,32.10
2023-01-19T00:39:45.265Z,31.55
2023-01-19T00:42:31.653Z,33.28
2023-01-19T00:44:58.321Z,33.17
2023-01-19T00:47:25.087Z,34.47
2023-01-19T00:49:51.653Z,30.45
2023-01-19T00:52:18.199Z,34.88
2023-01-19T00:54:44.614Z,43.38
2023-01-19T00:57:11.207Z,35.38
2023-01-19T00:59:37.697Z,28.50
2023-01-19T01:02:04.346Z,30.33
2023-01-19T01:04:31.095Z,41.35
2023-01-19T01:06:57.540Z,33.70
2023-01-19T01:09:24.245Z,34.83
2023-01-19T01:11:50.707Z,42.35
2023-01-19T01:14:18.192Z,32.17
2023-01-19T01:16:44.915Z,32.85
2023-01-19T01:19:11.509Z,29.17
2023-01-19T01:21:38.016Z,39.50
2023-01-19T01:24:05.051Z,34.92
2023-01-19T01:26:31.868Z,33.65
2023-01-19T01:28:58.337Z,32.78
2023-01-19T01:31:25.177Z,33.33
2023-01-19T01:33:51.733Z,33.83
2023-01-19T01:36:19.069Z,31.23
2023-01-19T01:38:45.549Z,32.15
2023-01-19T01:41:12.014Z,36.08
2023-01-19T01:43:58.593Z,28.40
2023-01-19T01:46:26.683Z,39.88
2023-01-19T01:49:13.825Z,36.90
2023-01-19T01:51:52.309Z,30.05
2023-01-19T01:54:32.277Z,27.13
2023-01-19T01:57:04.148Z,34.33
2023-01-19T01:59:39.166Z,33.95
2023-01-19T02:02:30.070Z,29.80
2023-01-19T02:09:14.295Z,27.90
2023-01-19T02:12:00.490Z,34.83
2023-01-19T02:14:27.111Z,36.10
2023-01-19T02:16:53.793Z,28.92
2023-01-19T02:19:27.093Z,32.30
2023-01-19T02:22:03.572Z,34.42
2023-01-19T02:24:30.550Z,33.70
2023-01-19T02:26:57.888Z,33.75
2023-01-19T02:29:26.538Z,33.28
2023-01-19T02:31:54.078Z,28.30
2023-01-19T02:34:22.742Z,29.88
2023-01-19T02:36:54.370Z,28.98
2023-01-19T02:39:28.923Z,30.73
2023-01-19T02:42:02.708Z,34.13
2023-01-19T02:44:30.471Z,29.30
2023-01-19T02:46:57.256Z,34.55
2023-01-19T02:49:27.847Z,32.53
2023-01-19T02:51:54.469Z,35.90
2023-01-19T02:54:48.378Z,31.08
2023-01-19T02:57:20.544Z,34.35
2023-01-19T03:00:05.194Z,35.35
2023-01-19T03:02:47.039Z,35.00
2023-01-19T03:05:20.071Z,38.83
2023-01-19T03:08:08.190Z,37.45
2023-01-19T03:11:03.819Z,37.55
2023-01-19T03:13:42.377Z,33.88
2023-01-19T03:16:32.331Z,31.23
2023-01-19T03:19:06.487Z,39.05
2023-01-19T03:21:36.792Z,38.47
2023-01-19T03:24:06.397Z,39.53
2023-01-19T03:26:38.980Z,34.13
2023-01-19T03:29:08.459Z,38.08
2023-01-19T03:31:36.896Z,39.40
2023-01-19T03:34:08.093Z,36.08
2023-01-19T03:36:42.755Z,47.20
2023-01-19T03:39:12.345Z,40.63
2023-01-19T03:41:41.141Z,41.28
2023-01-19T03:44:08.705Z,48.80
2023-01-19T03:46:35.302Z,32.97
2023-01-19T03:49:01.897Z,36.53
2023-01-19T03:51:28.351Z,33.80
2023-01-19T03:53:54.792Z,40.65
2023-01-19T03:56:25.419Z,36.45
2023-01-19T03:58:52.490Z,40.60
2023-01-19T04:01:23.040Z,38.15
2023-01-19T04:03:50.548Z,37.53
2023-01-19T04:06:17.530Z,40.42
2023-01-19T04:08:44.058Z,45.17
2023-01-19T04:11:10.568Z,44.35
2023-01-19T04:13:38.433Z,43.00
2023-01-19T04:16:05.561Z,46.05
2023-01-19T04:18:34.706Z,35.90
2023-01-19T04:21:04.067Z,42.10
2023-01-19T04:23:31.333Z,43.00
2023-01-19T04:26:04.225Z,44.13
2023-01-19T04:28:31.672Z,37.42
2023-01-19T04:30:58.256Z,37.42
2023-01-19T04:33:25.441Z,40.08
2023-01-19T04:35:54.429Z,35.13
2023-01-19T04:38:21.197Z,42.33
2023-01-19T04:40:49.181Z,35.47
2023-01-19T04:43:16.260Z,46.63
2023-01-19T04:45:44.780Z,43.67
2023-01-19T04:48:11.869Z,37.75
2023-01-19T04:50:38.779Z,45.45
2023-01-19T04:53:05.293Z,39.40
2023-01-19T04:55:31.741Z,44.97
2023-01-19T04:57:58.160Z,37.55
2023-01-19T05:00:24.714Z,39.90
2023-01-19T05:02:51.295Z,36.42
2023-01-19T05:05:18.377Z,37.42
2023-01-19T05:07:45.292Z,53.60
2023-01-19T05:10:12.043Z,37.28
2023-01-19T05:12:39.001Z,40.05
2023-01-19T05:15:07.799Z,37.80
2023-01-19T05:17:34.477Z,36.20
2023-01-19T05:20:00.987Z,41.22
2023-01-19T05:22:27.472Z,40.53
2023-01-19T05:24:54.292Z,39.42
2023-01-19T05:27:21.032Z,38.53
2023-01-19T05:29:47.495Z,34.75
2023-01-19T05:32:15.845Z,38.50
2023-01-19T05:34:42.290Z,38.47
2023-01-19T05:37:08.745Z,34.33
2023-01-19T05:39:35.159Z,42.88
2023-01-19T05:42:01.608Z,38.63
2023-01-19T05:44:28.094Z,38.20
2023-01-19T05:46:54.575Z,44.10
2023-01-19T05:49:21.021Z,36.17
2023-01-19T05:51:47.551Z,36.88
2023-01-19T05:54:17.599Z,40.38
2023-01-19T05:56:44.410Z,39.00
2023-01-19T05:59:11.641Z,37.03
2023-01-19T06:01:39.923Z,38.60
2023-01-19T06:04:06.805Z,35.47
2023-01-19T06:06:33.321Z,36.60
2023-01-19T06:08:59.935Z,39.15
2023-01-19T06:11:26.538Z,31.15
2023-01-19T06:13:53.016Z,34.10
2023-01-19T06:16:19.583Z,35.65
2023-01-19T06:18:46.159Z,41.40
2023-01-19T06:21:14.346Z,33.80
2023-01-19T06:23:41.135Z,35.47
2023-01-19T06:26:08.136Z,36.17
2023-01-19T06:28:34.699Z,41.65
2023-01-19T06:31:01.613Z,37.03
2023-01-19T06:33:28.744Z,43.60
2023-01-19T06:35:56.187Z,30.83
2023-01-19T06:38:23.086Z,27.88
2023-01-19T06:41:02.534Z,33.17
2023-01-19T06:43:29.696Z,32.05
2023-01-19T06:45:56.347Z,32.20
2023-01-19T06:48:23.818Z,41.25
2023-01-19T06:50:50.451Z,34.10
2023-01-19T06:53:17.584Z,34.63
2023-01-19T06:55:44.208Z,30.30
2023-01-19T06:58:11.458Z,33.00
2023-01-19T07:00:38.147Z,31.23
2023-01-19T07:03:08.190Z,30.60
2023-01-19T07:05:36.124Z,26.75
2023-01-19T07:08:03.270Z,35.30
2023-01-19T07:11:25.160Z,32.13
2023-01-19T07:13:16.215Z,29.95
2023-01-19T07:15:43.573Z,31.00
2023-01-19T07:18:10.216Z,25.85
2023-01-19T07:20:37.912Z,32.92
2023-01-19T07:23:04.462Z,39.08
2023-01-19T07:25:30.953Z,46.90
2023-01-19T07:28:00.636Z,43.50
2023-01-19T07:30:27.692Z,31.13
2023-01-19T07:32:58.939Z,35.53
2023-01-19T07:35:25.714Z,35.17
2023-01-19T07:37:52.457Z,29.77
2023-01-19T07:40:19.031Z,32.70
2023-01-19T07:42:50.259Z,32.30
2023-01-19T07:45:18.095Z,38.85
2023-01-19T07:47:45.197Z,37.28
2023-01-19T07:50:13.723Z,38.90
2023-01-19T07:52:40.367Z,31.08
2023-01-19T07:55:07.565Z,33.53
2023-01-19T07:57:34.848Z,25.70
2023-01-19T08:00:01.977Z,29.23
2023-01-19T08:02:28.500Z,26.35
2023-01-19T08:04:55.140Z,23.52
2023-01-19T08:07:21.800Z,28.13
2023-01-19T08:09:48.290Z,28.08
2023-01-19T08:12:14.908Z,29.17
2023-01-19T08:14:41.733Z,25.70
2023-01-19T08:17:12.913Z,30.92
2023-01-19T08:19:41.528Z,27.33
2023-01-19T08:22:18.065Z,24.45
2023-01-19T08:24:44.620Z,27.40
2023-01-19T08:27:13.400Z,27.98
2023-01-19T08:29:39.945Z,27.33
2023-01-19T08:32:06.778Z,28.73
2023-01-19T08:34:33.509Z,21.33
2023-01-19T08:36:59.989Z,26.30
2023-01-19T08:39:27.377Z,38.63
2023-01-19T08:41:54.221Z,28.27
2023-01-19T08:44:20.758Z,23.45
2023-01-19T08:46:47.757Z,22.25
2023-01-19T08:49:14.672Z,27.60
2023-01-19T08:51:41.298Z,24.08
2023-01-19T08:54:07.794Z,25.48
2023-01-19T08:56:34.438Z,22.23
2023-01-19T08:59:09.164Z,24.17
2023-01-19T09:01:37.215Z,23.98
2023-01-19T09:04:04.242Z,20.85
2023-01-19T09:06:30.838Z,21.73
2023-01-19T09:08:57.695Z,22.52
2023-01-19T09:11:24.211Z,27.58
2023-01-19T09:13:50.922Z,22.45
2023-01-19T09:16:17.640Z,23.75
2023-01-19T09:18:45.777Z,27.55
2023-01-19T09:21:12.344Z,22.10
2023-01-19T09:23:38.968Z,23.55
2023-01-19T09:26:06.231Z,25.17
2023-01-19T09:28:33.083Z,20.63
2023-01-19T09:30:59.729Z,22.58
2023-01-19T09:33:26.324Z,18.10
2023-01-19T09:35:52.897Z,21.08
2023-01-19T09:38:20.323Z,21.17
2023-01-19T09:40:55.364Z,17.13
2023-01-19T09:43:33.996Z,18.70
2023-01-19T09:46:02.615Z,22.88
2023-01-19T09:48:32.428Z,23.20
2023-01-19T09:51:02.756Z,22.80
2023-01-19T09:53:29.135Z,14.73
2023-01-19T09:55:55.658Z,17.13
2023-01-19T09:58:22.678Z,21.27
2023-01-19T10:01:02.689Z,15.88
2023-01-19T10:03:29.661Z,16.92
2023-01-19T10:06:03.499Z,20.25
2023-01-19T10:08:44.164Z,18.20
2023-01-19T10:11:51.308Z,20.33
2023-01-19T10:14:34.184Z,18.02
2023-01-19T10:17:14.699Z,18.83
2023-01-19T10:19:47.362Z,21.05
2023-01-19T10:22:21.641Z,15.18
2023-01-19T10:24:53.674Z,14.70
2023-01-19T10:27:26.736Z,13.20
2023-01-19T10:29:53.662Z,19.85
2023-01-19T10:32:23.654Z,16.02
2023-01-19T10:34:51.011Z,15.40
2023-01-19T10:37:33.403Z,15.57
2023-01-19T10:40:09.125Z,17.17
2023-01-19T10:42:36.914Z,14.65
2023-01-19T10:45:04.835Z,17.80
2023-01-19T10:47:35.195Z,17.20
2023-01-19T10:50:34.421Z,13.82
2023-01-19T10:53:06.277Z,12.73
2023-01-19T10:55:38.251Z,13.77
2023-01-19T10:58:06.933Z,15.88
2023-01-19T11:00:43.409Z,16.90
2023-01-19T11:03:30.658Z,23.20
2023-01-19T11:06:15.613Z,17.95
2023-01-19T11:08:44.343Z,16.52
2023-01-19T11:11:12.618Z,18.80
2023-01-19T11:13:40.619Z,18.52
2023-01-19T11:16:23.485Z,15.65
2023-01-19T11:18:53.515Z,15.93
2023-01-19T11:21:25.978Z,19.08
2023-01-19T11:23:59.005Z,18.60
2023-01-19T11:26:44.865Z,22.98
2023-01-19T11:29:18.223Z,15.15
2023-01-19T11:31:44.884Z,14.38
2023-01-19T11:34:37.415Z,17.75
2023-01-19T11:37:06.859Z,20.30
2023-01-19T11:39:47.591Z,20.80
2023-01-19T11:42:15.988Z,16.37
2023-01-19T11:44:57.682Z,15.15
2023-01-19T11:49:53.692Z,14.77
2023-01-19T11:52:55.663Z,18.15
2023-01-19T11:57:53.444Z,18.85
2023-01-19T12:00:29.095Z,18.30
2023-01-19T12:03:03.072Z,14.05
2023-01-19T12:05:33.487Z,22.55
2023-01-19T12:08:07.016Z,16.15
2023-01-19T12:10:39.004Z,13.18
2023-01-19T12:13:05.445Z,13.23
2023-01-19T12:15:37.474Z,15.73
2023-01-19T12:18:06.390Z,13.57
2023-01-19T12:20:40.488Z,16.02
2023-01-19T12:23:45.777Z,15.15
2023-01-19T12:26:24.082Z,13.15
2023-01-19T12:28:52.570Z,13.68
2023-01-19T12:31:23.558Z,12.60
2023-01-19T12:33:51.282Z,15.82
2023-01-19T12:36:27.078Z,15.85
2023-01-19T12:38:56.272Z,14.18
2023-01-19T12:41:30.481Z,16.08
2023-01-19T12:44:12.404Z,19.13
2023-01-19T12:46:42.236Z,9.90
2023-01-19T12:49:33.578Z,13.95
2023-01-19T12:52:34.440Z,14.60
2023-01-19T12:55:02.667Z,13.55
2023-01-19T12:57:37.925Z,16.38
2023-01-19T13:00:24.355Z,14.50
2023-01-19T13:02:52.790Z,18.80
2023-01-19T13:05:45.936Z,15.40
2023-01-19T13:08:14.927Z,14.27
2023-01-19T13:10:59.354Z,13.85
2023-01-19T13:13:27.787Z,17.52
2023-01-19T13:15:56.033Z,18.20
2023-01-19T13:18:31.816Z,14.55
2023-01-19T13:21:01.487Z,13.90
2023-01-19T13:23:51.896Z,20.33
2023-01-19T13:26:30.968Z,14.68
2023-01-19T13:29:25.139Z,20.27
2023-01-19T13:31:54.769Z,21.05
2023-01-19T13:34:24.635Z,18.45
2023-01-19T13:36:54.411Z,19.17
2023-01-19T13:39:28.538Z,20.58
2023-01-19T13:41:59.175Z,25.15
2023-01-19T13:44:29.498Z,15.57
2023-01-19T13:46:57.545Z,22.98
2023-01-19T13:49:37.050Z,25.23
2023-01-19T13:52:27.757Z,23.05
2023-01-19T13:55:03.818Z,15.68
2023-01-19T13:57:32.124Z,25.95
2023-01-19T14:00:04.047Z,23.10
2023-01-19T14:02:30.783Z,24.38
2023-01-19T14:04:57.560Z,24.83
2023-01-19T14:07:26.602Z,25.30
2023-01-19T14:10:06.715Z,24.75
2023-01-19T14:12:33.547Z,24.73
2023-01-19T14:15:00.804Z,27.05
2023-01-19T14:17:30.344Z,25.13
2023-01-19T14:19:58.568Z,26.55
2023-01-19T14:22:42.990Z,26.63
2023-01-19T14:25:34.077Z,26.25
2023-01-19T14:28:25.500Z,24.10
2023-01-19T14:31:01.592Z,21.30
2023-01-19T14:33:43.616Z,24.27
2023-01-19T14:36:39.289Z,25.02
2023-01-19T14:39:14.137Z,25.45
2023-01-19T14:41:47.920Z,26.67
2023-01-19T14:44:21.382Z,23.27
2023-01-19T14:46:49.099Z,25.30
2023-01-19T14:49:34.167Z,27.88
2023-01-19T14:52:08.467Z,33.70
2023-01-19T14:54:40.027Z,30.73
2023-01-19T14:57:12.494Z,27.55
2023-01-19T14:59:39.169Z,28.30
2023-01-19T15:02:06.373Z,28.58
2023-01-19T15:04:33.198Z,27.02
2023-01-19T15:06:59.768Z,28.13
2023-01-19T15:09:26.828Z,27.48
2023-01-19T15:11:53.625Z,29.88
2023-01-19T15:14:21.467Z,32.00
2023-01-19T15:16:48.475Z,28.70
2023-01-19T15:19:16.948Z,29.95
2023-01-19T15:21:46.841Z,25.45
2023-01-19T15:24:15.838Z,24.63
2023-01-19T15:26:43.599Z,28.90
2023-01-19T15:29:18.101Z,26.33
2023-01-19T15:31:44.841Z,27.48
2023-01-19T15:34:13.405Z,25.65
2023-01-19T15:36:40.452Z,32.72
2023-01-19T15:39:06.932Z,28.42
2023-01-19T15:41:33.640Z,27.17
2023-01-19T15:44:00.150Z,29.27
2023-01-19T15:46:27.328Z,29.55
2023-01-19T15:48:54.283Z,29.95
2023-01-19T15:51:22.842Z,30.58
2023-01-19T15:53:50.579Z,27.33
2023-01-19T15:56:31.185Z,25.67
2023-01-19T15:58:58.773Z,29.50
2023-01-19T16:01:32.016Z,31.63
2023-01-19T16:04:01.213Z,29.83
2023-01-19T16:06:28.666Z,27.55
2023-01-19T16:08:59.747Z,29.98
2023-01-19T16:11:33.517Z,24.33
2023-01-19T16:14:00.745Z,32.35
2023-01-19T16:16:28.226Z,25.70
2023-01-19T16:18:55.996Z,26.48
2023-01-19T16:21:23.825Z,34.50
2023-01-19T16:23:50.439Z,26.45
2023-01-19T16:26:34.840Z,30.20
2023-01-19T16:29:07.784Z,28.35
2023-01-19T16:31:34.627Z,29.77
2023-01-19T16:34:01.110Z,29.90
2023-01-19T16:36:29.856Z,27.73
2023-01-19T16:39:01.405Z,26.83
2023-01-19T16:41:28.224Z,29.85
2023-01-19T16:43:56.888Z,27.33
2023-01-19T16:46:26.484Z,27.65
2023-01-19T16:48:53.474Z,29.73
2023-01-19T16:51:20.366Z,25.50
2023-01-19T16:53:49.518Z,29.75
2023-01-19T16:56:16.156Z,27.77
2023-01-19T16:58:43.063Z,26.00
2023-01-19T17:01:17.240Z,33.13
2023-01-19T17:03:45.516Z,26.20
2023-01-19T17:06:14.760Z,30.85
2023-01-19T17:08:41.599Z,29.65
2023-01-19T17:11:10.845Z,26.23
2023-01-19T17:13:38.180Z,31.23
2023-01-19T17:16:06.364Z,35.97
2023-01-19T17:18:34.660Z,23.45
2023-01-19T17:21:07.395Z,24.42
2023-01-19T17:23:36.309Z,26.08
2023-01-19T17:26:04.318Z,24.05
2023-01-19T17:28:31.013Z,25.83
2023-01-19T17:31:05.003Z,25.00
2023-01-19T17:33:31.492Z,26.35
2023-01-19T17:36:06.912Z,26.77
2023-01-19T17:38:33.545Z,28.20
2023-01-19T17:41:00.026Z,28.95
2023-01-19T17:43:26.882Z,26.05
2023-01-19T17:45:53.426Z,24.67
2023-01-19T17:48:19.943Z,32.33
2023-01-19T17:50:46.603Z,27.60
2023-01-19T17:53:13.033Z,33.47
2023-01-19T17:55:39.476Z,31.23
2023-01-19T17:58:06.050Z,26.25
2023-01-19T18:00:32.539Z,29.98
2023-01-19T18:02:59.015Z,25.23
2023-01-19T18:05:25.509Z,26.23
2023-01-19T18:07:51.936Z,29.88
2023-01-19T18:10:18.385Z,28.38
2023-01-19T18:12:45.221Z,29.35
2023-01-19T18:15:12.355Z,28.50
2023-01-19T18:17:39.546Z,28.00
2023-01-19T18:20:06.334Z,32.53
2023-01-19T18:22:33.426Z,24.60
2023-01-19T18:25:01.536Z,25.83
2023-01-19T18:27:29.167Z,25.85
2023-01-19T18:29:55.985Z,28.48
2023-01-19T18:32:22.419Z,31.35
2023-01-19T18:34:51.020Z,26.60
2023-01-19T18:37:17.516Z,28.52
2023-01-19T18:39:44.163Z,27.20
2023-01-19T18:42:10.605Z,25.17
2023-01-19T18:44:37.166Z,30.42
2023-01-19T18:47:03.629Z,27.17
2023-01-19T18:49:30.039Z,23.80
2023-01-19T18:51:56.482Z,26.40
2023-01-19T18:54:23.132Z,28.40
2023-01-19T18:56:50.659Z,25.63
2023-01-19T18:59:17.171Z,25.00
2023-01-19T19:01:43.775Z,27.08
2023-01-19T19:04:10.356Z,26.48
2023-01-19T19:06:36.971Z,29.70
2023-01-19T19:09:03.566Z,33.30
2023-01-19T19:11:30.174Z,24.23
2023-01-19T19:13:59.802Z,27.35
2023-01-19T19:16:26.451Z,29.60
2023-01-19T19:18:53.088Z,25.85
2023-01-19T19:21:20.879Z,27.63
2023-01-19T19:23:55.473Z,26.25
2023-01-19T19:26:23.115Z,27.05
2023-01-19T19:28:49.930Z,25.80
2023-01-19T19:31:20.503Z,24.38
2023-01-19T19:33:48.860Z,20.40
2023-01-19T19:36:15.602Z,26.25
2023-01-19T19:38:43.027Z,25.17
2023-01-19T19:41:12.370Z,28.42
2023-01-19T19:43:39.270Z,26.85
2023-01-19T19:46:08.292Z,27.60
2023-01-19T19:48:38.860Z,24.95
2023-01-19T19:51:19.033Z,30.92
2023-01-19T19:53:46.520Z,26.77
2023-01-19T19:56:13.486Z,25.30
2023-01-19T19:58:41.979Z,24.77
2023-01-19T20:01:24.680Z,30.60
2023-01-19T20:03:53.383Z,30.30
2023-01-19T20:06:22.600Z,28.45
2023-01-19T20:08:50.622Z,30.08
2023-01-19T20:11:21.075Z,26.58
2023-01-19T20:13:47.792Z,25.50
2023-01-19T20:16:16.437Z,27.95
2023-01-19T20:18:45.159Z,27.67
2023-01-19T20:21:20.498Z,27.00
2023-01-19T20:23:48.052Z,28.15
2023-01-19T20:26:17.647Z,27.10
2023-01-19T20:28:44.252Z,30.95
2023-01-19T20:31:13.710Z,29.70
2023-01-19T20:33:40.537Z,38.28
2023-01-19T20:36:08.013Z,31.92
2023-01-19T20:38:34.686Z,29.02
2023-01-19T20:41:01.177Z,28.58
2023-01-19T20:43:28.763Z,26.52
2023-01-19T20:45:55.227Z,28.58
2023-01-19T20:48:21.907Z,27.20
2023-01-19T20:50:48.371Z,34.70
2023-01-19T20:53:14.961Z,25.27
2023-01-19T20:55:41.398Z,22.65
2023-01-19T20:58:07.859Z,30.15
2023-01-19T21:00:34.688Z,29.63
2023-01-19T21:03:01.247Z,26.48
2023-01-19T21:05:28.144Z,24.50
2023-01-19T21:07:54.598Z,23.20
2023-01-19T21:10:22.126Z,23.88
2023-01-19T21:12:48.625Z,26.40
2023-01-19T21:15:15.310Z,23.10
2023-01-19T21:17:43.710Z,21.88
2023-01-19T21:20:11.792Z,23.63
2023-01-19T21:22:38.269Z,26.30
2023-01-19T21:25:05.137Z,25.13
2023-01-19T21:27:31.595Z,23.10
2023-01-19T21:29:58.678Z,22.02
2023-01-19T21:32:25.214Z,26.23
2023-01-19T21:34:51.658Z,23.50
2023-01-19T21:37:18.263Z,22.77
2023-01-19T21:39:44.896Z,24.73
2023-01-19T21:42:11.400Z,26.27
2023-01-19T21:44:37.961Z,26.55
2023-01-19T21:47:09.773Z,24.13
2023-01-19T21:49:36.248Z,25.58
2023-01-19T21:52:02.746Z,25.58
2023-01-19T21:54:29.166Z,21.83
2023-01-19T21:56:55.610Z,21.80
2023-01-19T21:59:22.278Z,29.08
2023-01-19T22:01:48.962Z,20.77
2023-01-19T22:04:15.475Z,25.63
2023-01-19T22:06:41.924Z,23.35
2023-01-19T22:09:08.618Z,23.50
2023-01-19T22:11:35.234Z,23.42
2023-01-19T22:14:01.966Z,23.75
2023-01-19T22:16:29.438Z,21.98
2023-01-19T22:18:59.543Z,22.42
2023-01-19T22:21:31.913Z,25.77
2023-01-19T22:24:00.061Z,24.13
2023-01-19T22:26:28.235Z,24.30
2023-01-19T22:28:59.877Z,26.80
2023-01-19T22:31:28.462Z,23.08
2023-01-19T22:33:55.665Z,21.42
2023-01-19T22:36:27.703Z,25.23
2023-01-19T22:38:58.255Z,25.13
2023-01-19T22:41:40.651Z,16.50
2023-01-19T22:44:10.532Z,22.90
2023-01-19T22:46:37.642Z,23.67
2023-01-19T22:49:05.563Z,27.00
2023-01-19T22:51:32.753Z,22.50
2023-01-19T22:53:59.569Z,26.98
2023-01-19T22:56:28.727Z,25.83
2023-01-19T22:58:55.265Z,27.60
2023-01-19T23:01:25.588Z,23.77
2023-01-19T23:03:53.236Z,25.80
2023-01-19T23:06:24.950Z,24.70
2023-01-19T23:08:52.191Z,29.50
2023-01-19T23:11:22.485Z,29.23
2023-01-19T23:13:49.534Z,25.75
2023-01-19T23:16:16.518Z,25.17
2023-01-19T23:18:43.746Z,30.27
2023-01-19T23:21:15.784Z,26.50
2023-01-19T23:23:43.191Z,22.65
2023-01-19T23:26:12.659Z,30.15
2023-01-19T23:28:40.110Z,22.90
2023-01-19T23:31:13.059Z,26.00
2023-01-19T23:33:41.460Z,30.27
2023-01-19T23:36:08.482Z,26.13
2023-01-19T23:38:34.942Z,26.35
2023-01-19T23:41:01.550Z,28.80
2023-01-19T23:43:28.027Z,30.02
2023-01-19T23:45:54.506Z,31.30
2023-01-19T23:48:21.040Z,23.77
2023-01-19T23:50:47.540Z,30.38
2023-01-19T23:53:14.070Z,25.98
2023-01-19T23:55:40.520Z,28.33
2023-01-19T23:58:06.966Z,30.42
